Time;durP1;ratioP1;P1;durP2;ratioP2;P2;SDS_P1;SDS_P2;PMS_P1;PMS_P2;Temp;Humidity;BMP_temperature;BMP_pressure;BME280_temperature;BME280_humidity;BME280_pressure;Samples;Min_cycle;Max_cycle;Signal;HPM_P1;HPM_P2
2022/11/21 05:31:41;;;;;;;;;8.33;4.33;;;;;;;;5038898;24;46157;-56
2022/11/21 05:34:06;;;;;;;;;7.00;5.00;;;;;;;;4719897;30;45502;-57
2022/11/21 05:36:31;;;;;;;;;4.00;4.00;;;;;;;;4703502;30;45543;-55
2022/11/21 05:38:56;;;;;;;;;11.00;3.33;;;;;;;;4707294;30;45459;-56
2022/11/21 05:41:21;;;;;;;;;6.33;4.67;;;;;;;;4713884;30;45458;-56
2022/11/21 05:43:47;;;;;;;;;8.00;5.67;;;;;;;;4718812;30;45506;-56
2022/11/21 05:46:14;;;;;;;;;6.00;5.00;;;;;;;;4711450;30;45419;-56
2022/11/21 05:48:39;;;;;;;;;8.00;5.00;;;;;;;;4706425;30;45401;-56
2022/11/21 05:51:04;;;;;;;;;10.33;5.00;;;;;;;;4711196;30;45396;-56
2022/11/21 05:53:29;;;;;;;;;6.33;3.00;;;;;;;;4710419;30;45462;-57
2022/11/21 05:55:55;;;;;;;;;6.00;5.00;;;;;;;;4717132;30;46178;-56
2022/11/21 05:58:20;;;;;;;;;8.33;5.33;;;;;;;;4718464;30;45383;-56
2022/11/21 06:00:45;;;;;;;;;7.33;5.00;;;;;;;;4717879;30;45429;-57
2022/11/21 06:03:25;;;;;;;;;10.67;3.00;;;;;;;;4711606;30;45317;-58
2022/11/21 06:05:51;;;;;;;;;6.33;5.00;;;;;;;;4711706;30;46500;-57
2022/11/21 06:08:16;;;;;;;;;8.00;6.00;;;;;;;;4710808;30;45349;-55
2022/11/21 06:10:41;;;;;;;;;6.67;5.00;;;;;;;;4719712;30;45351;-57
2022/11/21 06:13:20;;;;;;;;;10.67;9.67;;;;;;;;4720860;30;45383;-56
2022/11/21 06:15:46;;;;;;;;;8.00;7.00;;;;;;;;4717847;30;46209;-56
2022/11/21 06:18:11;;;;;;;;;11.00;6.00;;;;;;;;4709850;30;45448;-57
2022/11/21 06:20:36;;;;;;;;;11.33;6.00;;;;;;;;4713693;30;45403;-56
2022/11/21 06:23:01;;;;;;;;;5.00;5.00;;;;;;;;4703022;30;45729;-57
2022/11/21 06:25:27;;;;;;;;;9.00;7.00;;;;;;;;4713796;30;46324;-57
2022/11/21 06:27:52;;;;;;;;;10.33;5.00;;;;;;;;4716022;30;45496;-57
2022/11/21 06:30:17;;;;;;;;;8.33;5.67;;;;;;;;4709473;30;45335;-58
2022/11/21 06:32:42;;;;;;;;;10.67;7.33;;;;;;;;4711875;30;45331;-57
2022/11/21 06:35:07;;;;;;;;;9.33;6.00;;;;;;;;4714682;30;46204;-57
2022/11/21 06:37:33;;;;;;;;;8.67;7.67;;;;;;;;4718296;30;45323;-57
2022/11/21 06:39:58;;;;;;;;;6.33;6.00;;;;;;;;4715419;30;45381;-56
2022/11/21 06:42:23;;;;;;;;;9.33;8.67;;;;;;;;4718886;30;45287;-57
2022/11/21 06:44:49;;;;;;;;;6.00;5.00;;;;;;;;4718569;30;46243;-57
2022/11/21 06:47:14;;;;;;;;;7.00;6.00;;;;;;;;4712105;30;45431;-57
2022/11/21 06:49:39;;;;;;;;;14.67;6.00;;;;;;;;4711757;30;45475;-56
2022/11/21 06:52:04;;;;;;;;;7.67;7.67;;;;;;;;4715964;30;45309;-57
2022/11/21 06:54:30;;;;;;;;;12.00;7.00;;;;;;;;4717864;30;46219;-57
2022/11/21 06:56:57;;;;;;;;;7.00;7.00;;;;;;;;4715052;30;45225;-57
2022/11/21 06:59:22;;;;;;;;;11.00;8.33;;;;;;;;4713561;30;45512;-56
2022/11/21 07:01:48;;;;;;;;;10.00;7.67;;;;;;;;4711936;30;45566;-55
2022/11/21 07:04:13;;;;;;;;;11.00;11.00;;;;;;;;4713890;30;47070;-56
2022/11/21 07:06:38;;;;;;;;;12.33;9.67;;;;;;;;4715001;30;45383;-58
2022/11/21 07:09:04;;;;;;;;;7.67;7.00;;;;;;;;4709279;30;45352;-58
2022/11/21 07:11:29;;;;;;;;;14.00;7.00;;;;;;;;4708103;30;45666;-66
2022/11/21 07:13:55;;;;;;;;;10.33;8.67;;;;;;;;4713003;30;45680;-59
2022/11/21 07:16:20;;;;;;;;;12.33;8.00;;;;;;;;4716025;30;45308;-59
2022/11/21 07:18:45;;;;;;;;;7.00;7.00;;;;;;;;4712584;30;45354;-59
2022/11/21 07:21:10;;;;;;;;;17.67;11.67;;;;;;;;4714784;30;45553;-59
2022/11/21 07:23:36;;;;;;;;;12.00;7.67;;;;;;;;4714154;30;45465;-59
2022/11/21 07:26:02;;;;;;;;;10.33;7.67;;;;;;;;4713112;30;45175;-59
2022/11/21 07:28:28;;;;;;;;;12.00;10.00;;;;;;;;4718673;30;45246;-58
2022/11/21 07:30:57;;;;;;;;;9.33;7.00;;;;;;;;4707447;30;45253;-59
2022/11/21 07:33:22;;;;;;;;;17.00;11.00;;;;;;;;4711961;30;46403;-60
2022/11/21 07:35:47;;;;;;;;;15.00;9.00;;;;;;;;4718108;30;45484;-59
2022/11/21 07:38:13;;;;;;;;;7.67;4.00;;;;;;;;4709762;30;45652;-59
2022/11/21 07:40:38;;;;;;;;;15.33;12.00;;;;;;;;4718639;30;45306;-59
2022/11/21 07:43:04;;;;;;;;;16.00;11.00;;;;;;;;4720432;30;47220;-59
2022/11/21 07:45:29;;;;;;;;;12.67;10.00;;;;;;;;4721295;30;45376;-59
2022/11/21 07:47:58;;;;;;;;;18.67;12.33;;;;;;;;4712606;30;45380;-57
2022/11/21 07:50:23;;;;;;;;;15.67;12.00;;;;;;;;4720221;30;45467;-58
2022/11/21 07:52:48;;;;;;;;;20.33;13.33;;;;;;;;4714649;30;45536;-59
2022/11/21 07:55:13;;;;;;;;;14.67;12.00;;;;;;;;4712520;30;45312;-58
2022/11/21 07:57:39;;;;;;;;;15.00;14.00;;;;;;;;4715646;30;45381;-58
2022/11/21 08:00:04;;;;;;;;;13.67;12.67;;;;;;;;4720357;30;45344;-58
2022/11/21 08:02:29;;;;;;;;;16.00;14.00;;;;;;;;4697631;30;45439;-57
2022/11/21 08:04:54;;;;;;;;;14.00;12.33;;;;;;;;4706014;30;45297;-58
2022/11/21 08:07:21;;;;;;;;;14.00;12.00;;;;;;;;4711254;30;45495;-59
2022/11/21 08:09:46;;;;;;;;;12.67;12.67;;;;;;;;4710783;30;45469;-56
2022/11/21 08:12:11;;;;;;;;;16.00;11.67;;;;;;;;4711584;30;46280;-58
2022/11/21 08:14:37;;;;;;;;;9.67;8.33;;;;;;;;4710936;30;45573;-58
2022/11/21 08:17:03;;;;;;;;;11.00;10.67;;;;;;;;4715733;30;45367;-58
2022/11/21 08:19:28;;;;;;;;;21.67;15.33;;;;;;;;4715617;30;45635;-58
2022/11/21 08:21:53;;;;;;;;;15.67;10.33;;;;;;;;4711038;30;46264;-59
2022/11/21 08:24:18;;;;;;;;;12.67;12.67;;;;;;;;4710007;30;45293;-58
2022/11/21 08:26:44;;;;;;;;;16.00;14.33;;;;;;;;4711068;30;45459;-57
2022/11/21 08:29:10;;;;;;;;;16.67;14.00;;;;;;;;4719909;30;45545;-58
2022/11/21 08:31:35;;;;;;;;;7.33;5.33;;;;;;;;4704825;30;46321;-57
2022/11/21 08:34:00;;;;;;;;;15.33;12.00;;;;;;;;4715895;30;45378;-59
2022/11/21 08:36:25;;;;;;;;;16.67;14.33;;;;;;;;4721302;30;45585;-58
2022/11/21 08:38:51;;;;;;;;;21.00;15.00;;;;;;;;4720021;30;45439;-58
2022/11/21 08:44:00;;;;;;;;;20.00;16.67;;;;;;;;4720076;30;45390;-58
2022/11/21 08:46:27;;;;;;;;;20.33;17.33;;;;;;;;4719711;30;45383;-58
2022/11/21 08:48:53;;;;;;;;;16.00;12.67;;;;;;;;4719034;30;45530;-58
2022/11/21 08:51:18;;;;;;;;;18.00;12.67;;;;;;;;4719276;30;45435;-58
2022/11/21 08:53:44;;;;;;;;;23.00;17.67;;;;;;;;4720204;30;45680;-58
2022/11/21 08:56:09;;;;;;;;;18.67;14.33;;;;;;;;4721596;30;45510;-57
2022/11/21 08:58:34;;;;;;;;;22.00;16.67;;;;;;;;4717615;30;45402;-57
2022/11/21 09:00:59;;;;;;;;;26.67;19.00;;;;;;;;4712355;30;46288;-57
2022/11/21 09:03:24;;;;;;;;;19.33;14.00;;;;;;;;4706682;30;45358;-58
2022/11/21 09:05:50;;;;;;;;;20.33;16.33;;;;;;;;4720705;30;45357;-55
2022/11/21 09:08:15;;;;;;;;;13.67;13.00;;;;;;;;4720680;30;45479;-57
2022/11/21 09:10:40;;;;;;;;;15.67;12.33;;;;;;;;4714201;30;45337;-56
2022/11/21 09:13:05;;;;;;;;;19.67;15.00;;;;;;;;4716816;30;45368;-57
2022/11/21 09:18:14;;;;;;;;;17.00;14.00;;;;;;;;4719443;30;45436;-58
2022/11/21 09:20:40;;;;;;;;;17.00;13.67;;;;;;;;4712094;30;45424;-58
2022/11/21 09:23:07;;;;;;;;;12.33;12.00;;;;;;;;4716622;30;45468;-58
2022/11/21 09:25:33;;;;;;;;;16.00;13.67;;;;;;;;4711587;30;45355;-58
2022/11/21 09:27:59;;;;;;;;;13.67;12.00;;;;;;;;4719571;30;45681;-58
2022/11/21 09:30:24;;;;;;;;;16.33;14.00;;;;;;;;4709473;30;47194;-58
2022/11/21 09:32:49;;;;;;;;;14.33;13.00;;;;;;;;4717377;30;45349;-58
2022/11/21 09:35:14;;;;;;;;;15.00;13.33;;;;;;;;4703370;30;45356;-58
2022/11/21 09:37:40;;;;;;;;;13.00;13.00;;;;;;;;4718894;30;45501;-57
2022/11/21 09:40:05;;;;;;;;;22.00;14.67;;;;;;;;4720628;30;46080;-57
2022/11/21 09:42:51;;;;;;;;;19.00;12.33;;;;;;;;4718648;30;45507;-57
2022/11/21 09:45:33;;;;;;;;;20.67;15.00;;;;;;;;4703713;30;45394;-58
2022/11/21 09:48:01;;;;;;;;;15.67;12.33;;;;;;;;4718244;30;45317;-57
2022/11/21 09:50:38;;;;;;;;;15.67;11.67;;;;;;;;4717622;30;45572;-58
2022/11/21 09:53:12;;;;;;;;;10.67;10.00;;;;;;;;4718396;30;45727;-58
2022/11/21 09:55:45;;;;;;;;;15.67;9.00;;;;;;;;4716139;30;45502;-57
2022/11/21 09:58:15;;;;;;;;;12.33;8.00;;;;;;;;4720139;30;45479;-57
2022/11/21 10:00:40;;;;;;;;;7.67;7.67;;;;;;;;4726321;30;46465;-58
2022/11/21 10:03:09;;;;;;;;;16.67;11.67;;;;;;;;4720314;30;45443;-59
2022/11/21 10:05:38;;;;;;;;;15.33;13.00;;;;;;;;4708658;30;45393;-58
2022/11/21 10:08:28;;;;;;;;;13.33;10.33;;;;;;;;4719504;30;45297;-57
2022/11/21 10:10:55;;;;;;;;;15.00;12.67;;;;;;;;4703915;30;47054;-57
2022/11/21 10:13:23;;;;;;;;;14.00;11.00;;;;;;;;4715563;30;45471;-58
2022/11/21 10:16:02;;;;;;;;;11.67;10.00;;;;;;;;4704556;30;45771;-57
2022/11/21 10:18:34;;;;;;;;;10.67;9.33;;;;;;;;4719251;30;45483;-58
2022/11/21 10:21:06;;;;;;;;;14.00;11.33;;;;;;;;4708374;30;45457;-57
2022/11/21 10:23:31;;;;;;;;;11.00;9.33;;;;;;;;4716011;30;45478;-57
2022/11/21 10:26:03;;;;;;;;;9.33;9.33;;;;;;;;4715718;30;45378;-57
2022/11/21 10:28:43;;;;;;;;;14.33;12.33;;;;;;;;4703789;30;45253;-58
2022/11/21 10:31:10;;;;;;;;;12.67;8.00;;;;;;;;4706300;30;46127;-57
2022/11/21 10:33:39;;;;;;;;;16.33;13.67;;;;;;;;4695440;30;45681;-57
2022/11/21 10:36:23;;;;;;;;;14.00;12.00;;;;;;;;4707598;30;45286;-57
2022/11/21 10:38:49;;;;;;;;;18.00;10.00;;;;;;;;4718696;30;45349;-58
2022/11/21 10:41:25;;;;;;;;;14.67;12.00;;;;;;;;4705113;30;46436;-57
2022/11/21 10:46:53;;;;;;;;;10.00;8.00;;;;;;;;4719877;30;45333;-57
2022/11/21 10:49:18;;;;;;;;;12.00;6.67;;;;;;;;4719328;30;45506;-58
2022/11/21 10:52:09;;;;;;;;;8.00;8.00;;;;;;;;4717794;30;45356;-56
2022/11/21 10:54:55;;;;;;;;;8.67;7.00;;;;;;;;4706110;30;45499;-58
2022/11/21 10:57:20;;;;;;;;;13.00;7.67;;;;;;;;4718385;30;45389;-57
2022/11/21 11:00:08;;;;;;;;;7.00;6.33;;;;;;;;4719605;30;45291;-57
2022/11/21 11:02:33;;;;;;;;;16.00;7.67;;;;;;;;4693372;30;45573;-58
2022/11/21 11:05:28;;;;;;;;;13.33;10.33;;;;;;;;4699279;30;45321;-57
2022/11/21 11:08:07;;;;;;;;;8.00;7.00;;;;;;;;4700800;30;45362;-55
2022/11/21 11:10:42;;;;;;;;;11.00;7.00;;;;;;;;4703215;30;45539;-56
2022/11/21 11:13:33;;;;;;;;;14.67;5.33;;;;;;;;4714407;30;45421;-57
2022/11/21 11:16:10;;;;;;;;;12.33;7.67;;;;;;;;4709840;30;45424;-57
2022/11/21 11:18:38;;;;;;;;;12.00;7.00;;;;;;;;4718373;30;45360;-58
2022/11/21 11:21:09;;;;;;;;;7.67;6.67;;;;;;;;4719391;30;45495;-57
2022/11/21 11:23:34;;;;;;;;;7.00;4.33;;;;;;;;4705312;30;46412;-57
2022/11/21 11:25:59;;;;;;;;;5.00;5.00;;;;;;;;4714611;30;45326;-57
2022/11/21 11:28:26;;;;;;;;;6.67;5.00;;;;;;;;4713064;30;45570;-57
2022/11/21 11:30:52;;;;;;;;;11.33;7.00;;;;;;;;4704742;30;45564;-57
2022/11/21 11:33:37;;;;;;;;;15.33;9.67;;;;;;;;4718739;30;47070;-57
2022/11/21 11:36:13;;;;;;;;;9.00;6.00;;;;;;;;4707050;30;45398;-58
2022/11/21 11:38:41;;;;;;;;;7.00;5.33;;;;;;;;4708734;30;45335;-58
2022/11/21 11:41:14;;;;;;;;;14.67;8.00;;;;;;;;4703966;30;45537;-58
2022/11/21 11:50:10;;;;;;;;;11.33;7.00;;;;;;;;4648118;30;45342;-58
2022/11/21 11:52:38;;;;;;;;;9.33;5.00;;;;;;;;4701202;30;45225;-59
2022/11/21 11:55:13;;;;;;;;;6.00;5.00;;;;;;;;4718527;30;46059;-58
2022/11/21 11:57:40;;;;;;;;;8.33;7.67;;;;;;;;4717684;30;45467;-58
2022/11/21 12:00:23;;;;;;;;;8.33;6.67;;;;;;;;4715976;30;45778;-57
2022/11/21 12:02:51;;;;;;;;;8.00;8.00;;;;;;;;4703109;30;45665;-57
2022/11/21 12:05:22;;;;;;;;;9.00;5.00;;;;;;;;4715636;30;45280;-57
2022/11/21 12:07:53;;;;;;;;;7.00;5.33;;;;;;;;4719110;30;45467;-57
2022/11/21 12:10:32;;;;;;;;;8.00;4.50;;;;;;;;4714725;30;45257;-59
2022/11/21 12:13:08;;;;;;;;;14.33;9.33;;;;;;;;4713640;30;45451;-56
2022/11/21 12:15:49;;;;;;;;;8.00;6.00;;;;;;;;4693270;30;46317;-57
2022/11/21 12:18:14;;;;;;;;;7.00;5.67;;;;;;;;4717540;30;45233;-57
2022/11/21 12:20:55;;;;;;;;;9.67;8.67;;;;;;;;4710309;30;45339;-57
2022/11/21 12:23:22;;;;;;;;;12.67;7.67;;;;;;;;4713297;30;45407;-57
2022/11/21 12:26:07;;;;;;;;;6.67;5.33;;;;;;;;4716103;30;47011;-57
2022/11/21 12:28:33;;;;;;;;;7.00;2.00;;;;;;;;4714835;30;45472;-57
2022/11/21 12:31:04;;;;;;;;;6.00;6.00;;;;;;;;4717311;30;45400;-57
2022/11/21 12:33:31;;;;;;;;;5.33;5.00;;;;;;;;4713909;30;45309;-59
2022/11/21 12:36:03;;;;;;;;;6.67;5.00;;;;;;;;4717606;30;45325;-58
2022/11/21 12:38:56;;;;;;;;;6.00;6.00;;;;;;;;4712380;30;45499;-56
2022/11/21 12:44:17;;;;;;;;;11.00;4.00;;;;;;;;4718481;30;45515;-57
2022/11/21 12:46:51;;;;;;;;;4.67;4.67;;;;;;;;4721381;30;45495;-57
2022/11/21 12:55:30;;;;;;;;;11.67;6.00;;;;;;;;4719332;30;45397;-57
2022/11/21 12:58:05;;;;;;;;;7.00;5.00;;;;;;;;4721439;30;45430;-57
2022/11/21 13:00:47;;;;;;;;;9.00;6.00;;;;;;;;4713837;30;45427;-56
2022/11/21 13:03:32;;;;;;;;;8.00;7.00;;;;;;;;4706689;30;45310;-57
2022/11/21 13:05:58;;;;;;;;;5.67;5.00;;;;;;;;4721415;30;45546;-56
2022/11/21 13:08:28;;;;;;;;;5.00;4.00;;;;;;;;4719477;30;45391;-58
2022/11/21 13:13:48;;;;;;;;;7.00;5.00;;;;;;;;4714954;30;45417;-57
2022/11/21 13:16:38;;;;;;;;;9.00;5.00;;;;;;;;4715706;30;45289;-57
2022/11/21 13:19:29;;;;;;;;;12.33;7.67;;;;;;;;4713281;30;46340;-57
2022/11/21 13:21:55;;;;;;;;;8.00;7.00;;;;;;;;4706112;30;45571;-58
2022/11/21 13:24:40;;;;;;;;;9.00;6.00;;;;;;;;4711365;30;45477;-56
2022/11/21 13:27:06;;;;;;;;;8.00;5.00;;;;;;;;4676041;30;45826;-56
2022/11/21 13:29:31;;;;;;;;;5.33;4.00;;;;;;;;4716100;30;46047;-57
2022/11/21 13:31:56;;;;;;;;;7.33;6.00;;;;;;;;4704171;30;45364;-56
2022/11/21 13:34:31;;;;;;;;;5.00;4.67;;;;;;;;4717276;30;45648;-56
2022/11/21 13:36:56;;;;;;;;;7.67;6.67;;;;;;;;4720739;30;45482;-56
2022/11/21 13:39:29;;;;;;;;;7.00;5.00;;;;;;;;4719296;30;45502;-57
2022/11/21 13:44:42;;;;;;;;;6.67;4.00;;;;;;;;4709919;30;45406;-56
2022/11/21 13:47:08;;;;;;;;;7.00;4.67;;;;;;;;4714916;30;45493;-57
2022/11/21 13:49:42;;;;;;;;;6.00;2.67;;;;;;;;4709997;30;47223;-57
2022/11/21 13:52:24;;;;;;;;;6.00;4.33;;;;;;;;4717107;30;45538;-57
2022/11/21 13:55:07;;;;;;;;;7.00;4.00;;;;;;;;4712505;30;45395;-56
2022/11/21 13:57:49;;;;;;;;;5.67;3.00;;;;;;;;4719081;30;45672;-58
2022/11/21 14:00:18;;;;;;;;;3.67;3.00;;;;;;;;4710860;30;45646;-57
2022/11/21 14:02:52;;;;;;;;;6.00;6.00;;;;;;;;4712389;30;46168;-57
2022/11/21 14:05:32;;;;;;;;;4.33;4.33;;;;;;;;4718585;30;45684;-56
2022/11/21 14:08:16;;;;;;;;;3.33;3.33;;;;;;;;4720531;30;45419;-57
2022/11/21 14:10:41;;;;;;;;;2.00;2.00;;;;;;;;4717551;30;45523;-57
2022/11/21 14:13:16;;;;;;;;;7.00;3.00;;;;;;;;4715954;30;45463;-55
2022/11/21 14:15:47;;;;;;;;;3.00;3.00;;;;;;;;4695505;30;45471;-57
2022/11/21 14:18:19;;;;;;;;;1.00;1.00;;;;;;;;4714277;30;45499;-58
2022/11/21 14:20:55;;;;;;;;;3.00;2.00;;;;;;;;4712947;30;46062;-59
2022/11/21 14:23:22;;;;;;;;;4.67;2.67;;;;;;;;4710652;30;45341;-57
2022/11/21 14:25:48;;;;;;;;;3.67;2.67;;;;;;;;4717992;30;45317;-58
2022/11/21 14:28:20;;;;;;;;;5.33;4.33;;;;;;;;4707617;30;45379;-57
2022/11/21 14:30:45;;;;;;;;;3.00;2.00;;;;;;;;4708621;30;45603;-56
2022/11/21 14:33:20;;;;;;;;;5.33;3.67;;;;;;;;4701264;30;45293;-57
2022/11/21 14:35:53;;;;;;;;;5.00;3.67;;;;;;;;4706367;30;45443;-57
2022/11/21 14:38:19;;;;;;;;;3.33;3.00;;;;;;;;4702191;30;45363;-57
2022/11/21 14:40:44;;;;;;;;;4.00;4.00;;;;;;;;4706879;30;46232;-57
2022/11/21 14:43:29;;;;;;;;;4.00;2.67;;;;;;;;4718308;30;45667;-57
2022/11/21 14:45:55;;;;;;;;;4.33;3.00;;;;;;;;4708734;30;45289;-57
2022/11/21 14:48:27;;;;;;;;;4.00;2.00;;;;;;;;4709922;30;45504;-57
2022/11/21 14:50:54;;;;;;;;;2.00;2.00;;;;;;;;4726992;30;46251;-57
2022/11/21 14:53:19;;;;;;;;;5.67;3.00;;;;;;;;4718650;30;45419;-57
2022/11/21 14:55:48;;;;;;;;;2.67;2.67;;;;;;;;4719372;30;45375;-57
2022/11/21 14:58:14;;;;;;;;;5.67;3.00;;;;;;;;4715682;30;45336;-57
2022/11/21 15:00:39;;;;;;;;;6.00;4.33;;;;;;;;4719287;30;46119;-56
2022/11/21 15:03:16;;;;;;;;;3.67;2.00;;;;;;;;4717583;30;45516;-57
2022/11/21 15:05:41;;;;;;;;;5.00;3.00;;;;;;;;4717600;30;45387;-57
2022/11/21 15:08:08;;;;;;;;;5.33;5.33;;;;;;;;4717267;30;45268;-55
2022/11/21 15:10:33;;;;;;;;;4.67;3.00;;;;;;;;4713151;30;46552;-57
2022/11/21 15:12:59;;;;;;;;;7.00;4.00;;;;;;;;4712521;30;45486;-57
2022/11/21 15:15:32;;;;;;;;;6.67;5.00;;;;;;;;4714010;30;45331;-57
2022/11/21 15:17:59;;;;;;;;;3.67;3.00;;;;;;;;4717768;30;45495;-56
2022/11/21 15:20:25;;;;;;;;;4.33;4.33;;;;;;;;4717178;30;47040;-57
2022/11/21 15:22:52;;;;;;;;;5.00;3.33;;;;;;;;4701559;30;45502;-57
2022/11/21 15:25:18;;;;;;;;;3.67;3.67;;;;;;;;4712884;30;45242;-57
2022/11/21 15:27:44;;;;;;;;;4.33;3.00;;;;;;;;4702581;30;45661;-56
2022/11/21 15:30:09;;;;;;;;;9.67;5.00;;;;;;;;4710558;30;45313;-57
2022/11/21 15:32:58;;;;;;;;;4.00;3.75;;;;;;;;4704336;30;45395;-56
2022/11/21 15:35:42;;;;;;;;;3.00;3.00;;;;;;;;4695989;30;45527;-56
2022/11/21 15:38:13;;;;;;;;;3.33;3.33;;;;;;;;4717913;30;45536;-57
2022/11/21 15:40:38;;;;;;;;;2.67;2.67;;;;;;;;4713446;30;46704;-57
2022/11/21 15:43:03;;;;;;;;;4.00;3.00;;;;;;;;4701859;30;45274;-57
2022/11/21 15:45:28;;;;;;;;;2.33;2.33;;;;;;;;4710354;30;45655;-57
2022/11/21 15:47:55;;;;;;;;;1.00;1.00;;;;;;;;4709738;30;45514;-56
2022/11/21 15:50:21;;;;;;;;;8.00;4.67;;;;;;;;4709685;30;47120;-57
2022/11/21 15:52:48;;;;;;;;;3.00;3.00;;;;;;;;4706956;30;45389;-56
2022/11/21 15:55:33;;;;;;;;;10.33;6.33;;;;;;;;4711208;30;45732;-57
2022/11/21 15:57:59;;;;;;;;;3.00;3.00;;;;;;;;4711648;30;45457;-55
2022/11/21 16:00:24;;;;;;;;;5.00;5.00;;;;;;;;4706156;30;45524;-57
2022/11/21 16:02:49;;;;;;;;;6.00;5.67;;;;;;;;4712485;30;45285;-57
2022/11/21 16:05:14;;;;;;;;;4.33;3.33;;;;;;;;4710213;30;45377;-57
2022/11/21 16:07:40;;;;;;;;;2.67;2.67;;;;;;;;4714188;30;45501;-56
2022/11/21 16:10:05;;;;;;;;;5.67;5.67;;;;;;;;4709771;30;45459;-57
2022/11/21 16:12:31;;;;;;;;;6.67;3.67;;;;;;;;4713840;30;45424;-57
2022/11/21 16:14:56;;;;;;;;;5.00;4.00;;;;;;;;4716570;30;45337;-57
2022/11/21 16:17:21;;;;;;;;;4.00;4.00;;;;;;;;4715056;30;45479;-58
2022/11/21 16:19:46;;;;;;;;;6.67;5.33;;;;;;;;4716167;30;46216;-58
2022/11/21 16:22:11;;;;;;;;;4.00;4.00;;;;;;;;4718044;30;45363;-57
2022/11/21 16:24:36;;;;;;;;;4.67;3.67;;;;;;;;4709217;30;46303;-58
2022/11/21 16:27:02;;;;;;;;;5.33;4.67;;;;;;;;4718511;30;45372;-57
2022/11/21 16:29:27;;;;;;;;;7.00;5.33;;;;;;;;4692997;30;46575;-58
2022/11/21 16:31:54;;;;;;;;;11.00;7.00;;;;;;;;4722047;30;45245;-57
2022/11/21 16:34:20;;;;;;;;;4.33;4.33;;;;;;;;4720196;30;45348;-58
2022/11/21 16:36:45;;;;;;;;;9.00;6.00;;;;;;;;4708072;30;45682;-58
2022/11/21 16:39:10;;;;;;;;;8.00;6.67;;;;;;;;4719955;30;45512;-58
2022/11/21 16:41:35;;;;;;;;;8.33;5.67;;;;;;;;4718421;30;45351;-58
2022/11/21 16:44:01;;;;;;;;;7.33;7.33;;;;;;;;4719110;30;45288;-58
2022/11/21 16:46:26;;;;;;;;;7.00;5.00;;;;;;;;4713997;30;45277;-58
2022/11/21 16:48:59;;;;;;;;;6.67;6.67;;;;;;;;4713528;30;45784;-58
2022/11/21 16:51:24;;;;;;;;;4.00;4.00;;;;;;;;4711540;30;45472;-59
2022/11/21 16:53:49;;;;;;;;;5.00;5.00;;;;;;;;4716294;30;45340;-59
2022/11/21 16:56:15;;;;;;;;;6.33;6.33;;;;;;;;4716603;30;45263;-59
2022/11/21 16:58:41;;;;;;;;;8.00;6.00;;;;;;;;4710299;30;46769;-58
2022/11/21 17:01:09;;;;;;;;;7.67;6.67;;;;;;;;4716063;30;45356;-57
2022/11/21 17:03:35;;;;;;;;;5.67;5.00;;;;;;;;4714995;30;45426;-57
2022/11/21 17:06:00;;;;;;;;;9.00;6.67;;;;;;;;4714967;30;45428;-57
2022/11/21 17:08:28;;;;;;;;;7.00;6.00;;;;;;;;4715627;30;45492;-58
2022/11/21 17:10:54;;;;;;;;;7.33;5.00;;;;;;;;4716803;30;45300;-58
2022/11/21 17:13:19;;;;;;;;;6.67;5.33;;;;;;;;4719133;30;45434;-58
2022/11/21 17:15:44;;;;;;;;;7.00;3.00;;;;;;;;4717363;30;45629;-58
2022/11/21 17:18:09;;;;;;;;;3.00;3.00;;;;;;;;4710098;30;45667;-58
2022/11/21 17:20:34;;;;;;;;;5.00;5.00;;;;;;;;4709885;30;45836;-58
2022/11/21 17:23:00;;;;;;;;;6.00;5.33;;;;;;;;4716865;30;45699;-57
2022/11/21 17:25:25;;;;;;;;;4.33;4.00;;;;;;;;4715682;30;45364;-57
2022/11/21 17:27:50;;;;;;;;;10.33;5.33;;;;;;;;4713367;30;46231;-57
2022/11/21 17:30:15;;;;;;;;;6.33;4.33;;;;;;;;4708035;30;45587;-58
2022/11/21 17:32:40;;;;;;;;;13.67;6.33;;;;;;;;4708890;30;45535;-56
2022/11/21 17:35:06;;;;;;;;;9.00;5.00;;;;;;;;4709925;30;45317;-57
2022/11/21 17:37:31;;;;;;;;;6.33;4.00;;;;;;;;4713991;30;45347;-57
2022/11/21 17:39:56;;;;;;;;;5.67;4.00;;;;;;;;4713237;30;45539;-58
2022/11/21 17:42:22;;;;;;;;;4.67;4.67;;;;;;;;4707331;30;45516;-58
2022/11/21 17:44:48;;;;;;;;;10.33;6.00;;;;;;;;4705519;30;45546;-57
2022/11/21 17:47:13;;;;;;;;;7.00;5.00;;;;;;;;4696690;30;47476;-56
2022/11/21 17:49:38;;;;;;;;;7.00;6.33;;;;;;;;4714234;30;45335;-56
2022/11/21 17:52:04;;;;;;;;;8.33;6.33;;;;;;;;4712502;30;45719;-56
2022/11/21 17:54:29;;;;;;;;;10.33;6.33;;;;;;;;4709908;30;45627;-57
2022/11/21 17:56:54;;;;;;;;;7.00;7.00;;;;;;;;4706411;30;45988;-56
2022/11/21 17:59:20;;;;;;;;;10.67;5.00;;;;;;;;4708264;30;45539;-55
2022/11/21 18:01:45;;;;;;;;;12.00;7.00;;;;;;;;4712860;30;45486;-55
2022/11/21 18:04:12;;;;;;;;;8.67;6.33;;;;;;;;4706209;30;45498;-56
2022/11/21 18:06:38;;;;;;;;;5.00;4.33;;;;;;;;4718537;30;45472;-59
2022/11/21 18:09:04;;;;;;;;;5.33;5.33;;;;;;;;4716457;30;45682;-57
2022/11/21 18:11:30;;;;;;;;;8.00;6.00;;;;;;;;4710582;30;45356;-55
2022/11/21 18:13:56;;;;;;;;;5.67;4.33;;;;;;;;4719430;30;45348;-57
2022/11/21 18:16:22;;;;;;;;;6.00;4.00;;;;;;;;4709503;30;45974;-56
2022/11/21 18:18:48;;;;;;;;;11.33;5.00;;;;;;;;4707895;30;45394;-56
2022/11/21 18:21:14;;;;;;;;;7.33;6.33;;;;;;;;4705731;30;45385;-59
2022/11/21 18:23:39;;;;;;;;;11.33;5.33;;;;;;;;4711032;30;45320;-59
2022/11/21 18:26:13;;;;;;;;;9.67;8.33;;;;;;;;4716469;30;46447;-59
2022/11/21 18:28:38;;;;;;;;;7.67;5.00;;;;;;;;4713353;30;45574;-59
2022/11/21 18:31:13;;;;;;;;;11.67;6.00;;;;;;;;4709495;30;45404;-58
2022/11/21 18:33:39;;;;;;;;;7.00;5.00;;;;;;;;4708284;30;45700;-59
2022/11/21 18:36:06;;;;;;;;;7.67;5.00;;;;;;;;4708922;30;46163;-59
2022/11/21 18:38:36;;;;;;;;;6.67;4.00;;;;;;;;4706823;30;45431;-58
2022/11/21 18:41:04;;;;;;;;;6.33;5.00;;;;;;;;4706747;30;46129;-59
2022/11/21 18:43:30;;;;;;;;;4.33;4.00;;;;;;;;4704992;30;45440;-59
2022/11/21 18:46:00;;;;;;;;;10.00;6.00;;;;;;;;4709223;30;45679;-59
2022/11/21 18:48:26;;;;;;;;;7.00;5.67;;;;;;;;4708045;30;45414;-59
2022/11/21 18:50:51;;;;;;;;;6.67;6.00;;;;;;;;4693023;30;45349;-59
2022/11/21 18:53:16;;;;;;;;;6.33;5.00;;;;;;;;4715439;30;45448;-59
2022/11/21 18:55:41;;;;;;;;;12.00;6.33;;;;;;;;4708728;30;46107;-58
2022/11/21 18:58:06;;;;;;;;;12.00;5.33;;;;;;;;4704979;30;45404;-58
2022/11/21 19:00:31;;;;;;;;;11.00;7.00;;;;;;;;4710562;30;45454;-59
2022/11/21 19:02:57;;;;;;;;;7.00;5.00;;;;;;;;4709254;30;46033;-59
2022/11/21 19:05:22;;;;;;;;;10.00;7.00;;;;;;;;4711357;30;45198;-59
2022/11/21 19:07:47;;;;;;;;;15.33;9.67;;;;;;;;4713900;30;45547;-58
2022/11/21 19:10:12;;;;;;;;;7.67;6.67;;;;;;;;4720865;30;45395;-60
2022/11/21 19:12:39;;;;;;;;;8.67;5.00;;;;;;;;4708867;30;45408;-60
2022/11/21 19:15:04;;;;;;;;;11.00;8.00;;;;;;;;4710772;30;45464;-60
2022/11/21 19:17:29;;;;;;;;;12.33;5.67;;;;;;;;4711857;30;45514;-60
2022/11/21 19:19:54;;;;;;;;;12.00;10.33;;;;;;;;4715045;30;45594;-60
2022/11/21 19:22:20;;;;;;;;;9.00;8.67;;;;;;;;4713909;30;45311;-60
2022/11/21 19:24:45;;;;;;;;;9.33;7.67;;;;;;;;4704467;30;46348;-60
2022/11/21 19:27:10;;;;;;;;;10.67;7.67;;;;;;;;4703897;30;45579;-60
2022/11/21 19:29:35;;;;;;;;;5.67;5.67;;;;;;;;4711165;30;45478;-59
2022/11/21 19:32:00;;;;;;;;;8.00;6.00;;;;;;;;4714044;30;45621;-60
2022/11/21 19:34:25;;;;;;;;;11.33;6.33;;;;;;;;4712276;30;45982;-59
2022/11/21 19:36:51;;;;;;;;;6.00;3.00;;;;;;;;4719529;30;45443;-60
2022/11/21 19:39:17;;;;;;;;;3.33;3.00;;;;;;;;4714078;30;45327;-60
2022/11/21 19:41:42;;;;;;;;;6.33;3.00;;;;;;;;4710792;30;45601;-59
2022/11/21 19:44:08;;;;;;;;;5.00;3.33;;;;;;;;4710024;30;46182;-59
2022/11/21 19:46:35;;;;;;;;;4.00;3.33;;;;;;;;4707030;30;45491;-60
2022/11/21 19:49:00;;;;;;;;;6.67;4.33;;;;;;;;4718311;30;45347;-60
2022/11/21 19:51:29;;;;;;;;;5.00;3.00;;;;;;;;4717572;30;45413;-60
2022/11/21 19:53:55;;;;;;;;;3.67;2.67;;;;;;;;4696038;30;47295;-60
2022/11/21 19:56:21;;;;;;;;;6.00;3.00;;;;;;;;4715516;30;45395;-60
2022/11/21 19:58:47;;;;;;;;;5.00;3.00;;;;;;;;4717543;30;45466;-60
2022/11/21 20:01:17;;;;;;;;;4.00;4.00;;;;;;;;4714915;30;45744;-59
2022/11/21 20:03:43;;;;;;;;;5.00;5.00;;;;;;;;4708150;30;46335;-59
2022/11/21 20:06:14;;;;;;;;;3.33;3.00;;;;;;;;4708488;30;45753;-60
2022/11/21 20:08:40;;;;;;;;;2.00;2.00;;;;;;;;4719964;30;45557;-60
2022/11/21 20:11:09;;;;;;;;;6.33;2.00;;;;;;;;4707747;30;45446;-60
2022/11/21 20:13:34;;;;;;;;;4.00;4.00;;;;;;;;4714270;30;47114;-60
2022/11/21 20:15:59;;;;;;;;;4.00;2.00;;;;;;;;4719495;30;45460;-59
2022/11/21 20:18:24;;;;;;;;;8.00;5.00;;;;;;;;4713040;30;45709;-59
2022/11/21 20:20:50;;;;;;;;;2.00;2.00;;;;;;;;4707630;30;45545;-59
2022/11/21 20:23:15;;;;;;;;;4.33;3.33;;;;;;;;4713105;30;45625;-59
2022/11/21 20:25:48;;;;;;;;;3.00;2.00;;;;;;;;4712755;30;45483;-59
2022/11/21 20:28:13;;;;;;;;;3.00;2.00;;;;;;;;4693312;30;46047;-59
2022/11/21 20:30:38;;;;;;;;;4.67;2.67;;;;;;;;4704343;30;45761;-59
2022/11/21 20:33:03;;;;;;;;;3.33;2.00;;;;;;;;4710911;30;45545;-59
2022/11/21 20:35:30;;;;;;;;;2.33;2.00;;;;;;;;4723743;30;45385;-59
2022/11/21 20:37:55;;;;;;;;;6.00;2.00;;;;;;;;4720267;30;45268;-59
2022/11/21 20:40:20;;;;;;;;;3.33;2.00;;;;;;;;4720714;30;45380;-61
2022/11/21 20:42:46;;;;;;;;;2.00;2.00;;;;;;;;4709765;30;45641;-60